FEFT

Berbérati Airport

Berbérati, Central African Republic
METAR FEFT 191000Z 32006KT 9999 BKN003 23/21 Q1013 RERA
Observed Flight Rules
Jun-19 @ 10:00 UTC (10 hours ago) Instrument Flight Rules
Wind Visibility Clouds
320° at 6 knots 10,000+ meters
  • Broken at 300' AGL
Temperatures Readings
Current 23°C / 73°F
Dewpoint 21°C / 70°F
Humidity 89%
Altimeter 29.91" Hg
Pressure 1013 hPa
Elevation 583
METAR FEFT 191000Z 32006KT 9999 BKN003 23/21 Q1013 RERA
Observed Flight Rules
Jun-19 @ 10:00 UTC
(10 hours ago)
LIFR
Wind Visibility
320° at 6 knots 10,000+ meters
Clouds
  • Broken at 300' AGL
Temperature Dewpoint
23°C / 73°F 21°C / 70°F
Humidity Altimeter Pressure
89% 29.91" Hg 1013 hPa